createdAt,value
2023-12-30T00:00:23.450Z,26.08
2023-12-30T00:01:23.489Z,26.06
2023-12-30T00:02:23.461Z,26.07
2023-12-30T00:03:23.416Z,26.10
2023-12-30T00:04:23.505Z,26.07
2023-12-30T00:05:23.406Z,26.08
2023-12-30T00:06:23.446Z,26.10
2023-12-30T00:07:23.467Z,26.10
2023-12-30T00:08:23.427Z,26.12
2023-12-30T00:09:23.413Z,26.08
2023-12-30T00:10:23.628Z,26.12
2023-12-30T00:11:23.425Z,26.13
2023-12-30T00:12:24.404Z,26.08
2023-12-30T00:13:23.511Z,26.10
2023-12-30T00:14:23.468Z,26.12
2023-12-30T00:15:24.339Z,26.12
2023-12-30T00:16:24.410Z,26.10
2023-12-30T00:17:44.493Z,26.12
2023-12-30T00:18:23.496Z,26.13
2023-12-30T00:19:23.632Z,26.10
2023-12-30T00:20:23.498Z,26.12
2023-12-30T00:21:44.527Z,26.12
2023-12-30T00:22:25.612Z,26.10
2023-12-30T00:23:24.020Z,26.12
2023-12-30T00:24:23.557Z,26.12
2023-12-30T00:25:24.377Z,26.10
2023-12-30T00:26:23.482Z,26.10
2023-12-30T00:27:24.383Z,26.08
2023-12-30T00:28:24.441Z,26.07
2023-12-30T00:29:23.510Z,26.07
2023-12-30T00:30:23.505Z,26.08
2023-12-30T00:31:23.540Z,26.07
2023-12-30T00:32:23.511Z,26.08
2023-12-30T00:33:23.618Z,26.08
2023-12-30T00:34:24.481Z,26.10
2023-12-30T00:35:24.353Z,26.10
2023-12-30T00:36:23.648Z,26.10
2023-12-30T00:37:23.577Z,26.10
2023-12-30T00:38:24.477Z,26.08
2023-12-30T00:39:23.577Z,26.07
2023-12-30T00:40:27.176Z,26.08
2023-12-30T00:41:24.352Z,26.10
2023-12-30T00:42:23.559Z,26.10
2023-12-30T00:43:24.460Z,26.07
2023-12-30T00:44:23.986Z,26.10
2023-12-30T00:45:23.505Z,26.08
2023-12-30T00:46:23.562Z,26.08
2023-12-30T00:47:23.591Z,26.08
2023-12-30T00:48:23.535Z,26.06
2023-12-30T00:49:24.167Z,26.07
2023-12-30T00:50:23.533Z,26.07
2023-12-30T00:51:23.545Z,26.08
2023-12-30T00:52:24.597Z,26.08
2023-12-30T00:53:23.719Z,26.08
2023-12-30T00:54:25.993Z,26.06
2023-12-30T00:55:23.560Z,26.04
2023-12-30T00:56:25.401Z,26.08
2023-12-30T00:57:24.384Z,26.06
2023-12-30T00:58:23.555Z,26.06
2023-12-30T00:59:24.407Z,26.06
2023-12-30T01:00:23.513Z,26.06
2023-12-30T01:01:23.634Z,26.06
2023-12-30T01:02:23.551Z,26.06
2023-12-30T01:03:23.541Z,26.06
2023-12-30T01:04:24.872Z,26.04
2023-12-30T01:05:23.672Z,26.04
2023-12-30T01:06:24.377Z,26.04
2023-12-30T01:07:23.570Z,26.06
2023-12-30T01:08:23.599Z,26.06
2023-12-30T01:09:24.728Z,26.07
2023-12-30T01:10:25.417Z,26.06
2023-12-30T01:11:23.529Z,26.07
2023-12-30T01:12:25.381Z,26.06
2023-12-30T01:13:23.579Z,26.06
2023-12-30T01:14:23.585Z,26.06
2023-12-30T01:15:24.567Z,26.06
2023-12-30T01:16:23.576Z,26.06
2023-12-30T01:17:23.554Z,26.04
2023-12-30T01:18:23.649Z,26.04
2023-12-30T01:19:23.653Z,26.07
2023-12-30T01:20:23.646Z,26.03
2023-12-30T01:21:23.644Z,26.06
2023-12-30T01:22:26.442Z,26.04
2023-12-30T01:23:23.549Z,26.01
2023-12-30T01:24:23.930Z,26.04
2023-12-30T01:25:24.420Z,26.06
2023-12-30T01:26:23.691Z,26.01
2023-12-30T01:27:24.622Z,26.03
2023-12-30T01:28:23.593Z,26.03
2023-12-30T01:29:23.651Z,26.03
2023-12-30T01:30:23.775Z,26.00
2023-12-30T01:31:24.471Z,26.04
2023-12-30T01:32:23.609Z,26.04
2023-12-30T01:33:23.605Z,26.04
2023-12-30T01:34:23.635Z,26.03
2023-12-30T01:35:24.384Z,26.00
2023-12-30T01:36:44.579Z,26.03
2023-12-30T01:37:25.505Z,26.01
2023-12-30T01:38:23.647Z,26.03
2023-12-30T01:39:23.576Z,26.01
2023-12-30T01:40:23.686Z,26.03
2023-12-30T01:41:23.590Z,26.04
2023-12-30T01:42:23.653Z,26.01
2023-12-30T01:43:26.467Z,26.00
2023-12-30T01:44:23.662Z,26.01
2023-12-30T01:45:23.606Z,26.03
2023-12-30T01:46:24.452Z,26.03
2023-12-30T01:47:23.689Z,26.01
2023-12-30T01:48:23.757Z,26.04
2023-12-30T01:49:23.647Z,25.99
2023-12-30T01:50:24.459Z,26.03
2023-12-30T01:51:26.018Z,26.01
2023-12-30T01:52:24.496Z,26.01
2023-12-30T01:53:23.632Z,26.00
2023-12-30T01:54:23.633Z,26.00
2023-12-30T01:55:24.458Z,26.01
2023-12-30T01:56:28.487Z,26.03
2023-12-30T01:57:24.946Z,26.03
2023-12-30T01:58:23.972Z,26.01
2023-12-30T01:59:23.943Z,26.01
2023-12-30T02:00:24.040Z,26.01
2023-12-30T02:01:23.967Z,26.03
2023-12-30T02:02:24.935Z,26.00
2023-12-30T02:03:23.964Z,26.01
2023-12-30T02:04:24.030Z,26.00
2023-12-30T02:05:26.951Z,26.01
2023-12-30T02:06:23.985Z,26.00
2023-12-30T02:07:24.003Z,26.01
2023-12-30T02:08:23.952Z,25.99
2023-12-30T02:09:24.936Z,26.00
2023-12-30T02:10:23.976Z,26.00
2023-12-30T02:11:25.011Z,25.99
2023-12-30T02:12:23.984Z,26.00
2023-12-30T02:13:23.992Z,26.00
2023-12-30T02:14:25.394Z,25.99
2023-12-30T02:15:23.975Z,26.01
2023-12-30T02:16:24.035Z,26.03
2023-12-30T02:17:23.938Z,26.00
2023-12-30T02:18:23.937Z,26.00
2023-12-30T02:19:24.056Z,26.00
2023-12-30T02:20:23.912Z,25.99
2023-12-30T02:21:23.927Z,26.00
2023-12-30T02:22:23.989Z,26.00
2023-12-30T02:23:24.956Z,26.00
2023-12-30T02:57:47.919Z,25.99
2023-12-30T02:58:24.536Z,25.96
2023-12-30T02:59:23.526Z,26.00
2023-12-30T03:00:23.542Z,26.01
2023-12-30T03:01:24.488Z,25.99
2023-12-30T03:02:24.422Z,26.00
2023-12-30T03:03:23.498Z,26.00
2023-12-30T03:04:23.638Z,26.00
2023-12-30T03:05:24.503Z,26.00
2023-12-30T03:06:23.536Z,25.99
2023-12-30T03:07:24.474Z,25.99
2023-12-30T03:08:28.479Z,25.99
2023-12-30T03:09:23.913Z,25.99
2023-12-30T03:10:23.638Z,26.00
2023-12-30T03:11:24.472Z,26.00
2023-12-30T03:12:23.503Z,25.99
2023-12-30T03:13:24.549Z,26.01
2023-12-30T03:14:23.994Z,25.99
2023-12-30T03:15:23.508Z,26.00
2023-12-30T03:16:23.585Z,25.99
2023-12-30T03:17:26.496Z,25.99
2023-12-30T03:18:25.698Z,26.00
2023-12-30T03:19:24.455Z,25.97
2023-12-30T03:20:23.514Z,26.00
2023-12-30T03:21:23.493Z,26.00
2023-12-30T03:22:23.529Z,26.00
2023-12-30T03:23:25.482Z,25.97
2023-12-30T03:24:23.935Z,26.00
2023-12-30T03:25:25.579Z,26.01
2023-12-30T03:26:23.491Z,26.00
2023-12-30T03:27:25.436Z,26.00
2023-12-30T03:28:23.509Z,25.96
2023-12-30T03:29:23.588Z,25.97
2023-12-30T03:30:23.536Z,25.97
2023-12-30T03:31:24.607Z,25.99
2023-12-30T03:32:23.513Z,26.00
2023-12-30T03:33:28.602Z,25.99
2023-12-30T03:34:23.568Z,25.99
2023-12-30T03:35:23.479Z,25.99
2023-12-30T03:36:23.519Z,26.00
2023-12-30T03:37:23.591Z,25.99
2023-12-30T03:38:23.559Z,25.99
2023-12-30T03:39:24.029Z,25.96
2023-12-30T03:40:45.478Z,25.99
2023-12-30T03:41:23.598Z,26.00
2023-12-30T03:42:24.460Z,26.00
2023-12-30T03:43:24.462Z,25.99
2023-12-30T03:44:25.568Z,25.99
2023-12-30T03:45:25.452Z,25.99
2023-12-30T03:46:23.494Z,25.99
2023-12-30T03:47:23.721Z,26.00
2023-12-30T03:48:25.614Z,25.96
2023-12-30T03:49:23.584Z,25.99
2023-12-30T03:50:23.514Z,25.96
2023-12-30T03:51:23.477Z,25.97
2023-12-30T03:52:25.473Z,25.99
2023-12-30T03:53:25.566Z,25.96
2023-12-30T03:54:23.959Z,25.99
2023-12-30T03:55:23.563Z,26.00
2023-12-30T03:56:23.549Z,25.96
2023-12-30T03:57:23.514Z,25.96
2023-12-30T03:58:23.522Z,25.97
2023-12-30T03:59:23.562Z,25.99
2023-12-30T04:00:26.562Z,25.97
2023-12-30T04:01:23.544Z,25.95
2023-12-30T04:02:24.524Z,25.97
2023-12-30T04:03:23.693Z,25.96
2023-12-30T04:04:25.499Z,25.99
2023-12-30T04:05:23.523Z,26.00
2023-12-30T04:06:25.478Z,25.96
2023-12-30T04:07:23.527Z,25.99
2023-12-30T04:08:23.532Z,25.97
2023-12-30T04:09:25.708Z,25.97
2023-12-30T04:10:23.518Z,25.96
2023-12-30T04:11:23.633Z,25.95
2023-12-30T04:12:23.534Z,25.95
2023-12-30T04:13:23.552Z,25.95
2023-12-30T04:14:23.949Z,25.95
2023-12-30T04:15:23.624Z,25.96
2023-12-30T04:16:23.559Z,25.93
2023-12-30T04:17:23.649Z,25.96
2023-12-30T04:18:23.751Z,25.95
2023-12-30T04:19:24.116Z,25.96
2023-12-30T04:20:23.552Z,25.97
2023-12-30T04:21:23.528Z,25.95
2023-12-30T04:22:23.686Z,25.96
2023-12-30T04:23:24.591Z,25.93
2023-12-30T04:24:23.578Z,26.00
2023-12-30T04:25:23.666Z,25.97
2023-12-30T04:26:23.559Z,25.96
2023-12-30T04:27:23.540Z,25.97
2023-12-30T04:28:23.637Z,25.97
2023-12-30T04:29:23.635Z,25.96
2023-12-30T04:30:24.628Z,25.93
2023-12-30T04:31:25.513Z,25.97
2023-12-30T04:32:23.558Z,25.95
2023-12-30T04:33:23.663Z,25.96
2023-12-30T04:34:23.709Z,25.96
2023-12-30T04:35:23.588Z,25.95
2023-12-30T04:36:24.531Z,25.96
2023-12-30T04:37:23.596Z,25.97
2023-12-30T04:38:23.529Z,25.97
2023-12-30T04:39:23.957Z,25.95
2023-12-30T04:40:23.609Z,25.95
2023-12-30T04:41:23.538Z,25.96
2023-12-30T04:42:23.690Z,25.96
2023-12-30T04:43:23.580Z,25.93
2023-12-30T04:44:23.605Z,25.96
2023-12-30T04:45:24.462Z,25.96
2023-12-30T04:46:23.594Z,25.96
2023-12-30T04:47:23.509Z,25.96
2023-12-30T04:48:24.536Z,25.95
2023-12-30T05:00:38.420Z,25.96
2023-12-30T05:01:37.382Z,25.93
2023-12-30T05:02:36.272Z,25.95
2023-12-30T05:03:36.364Z,25.93
2023-12-30T05:04:36.744Z,25.95
2023-12-30T05:05:36.357Z,25.95
2023-12-30T05:06:38.859Z,25.95
2023-12-30T05:07:36.193Z,25.93
2023-12-30T05:08:36.227Z,25.95
2023-12-30T05:09:36.156Z,25.93
2023-12-30T05:10:37.248Z,25.96
2023-12-30T05:11:36.770Z,25.97
2023-12-30T05:12:36.845Z,25.93
2023-12-30T05:13:36.111Z,25.95
2023-12-30T05:14:36.086Z,25.96
2023-12-30T05:15:35.994Z,25.96
2023-12-30T05:16:35.991Z,25.95
2023-12-30T05:17:37.920Z,25.95
2023-12-30T05:18:36.819Z,25.97
2023-12-30T05:19:36.023Z,25.96
2023-12-30T05:20:36.798Z,25.96
2023-12-30T05:21:38.092Z,25.96
2023-12-30T05:22:35.919Z,25.97
2023-12-30T05:23:37.903Z,25.96
2023-12-30T05:24:36.273Z,25.96
2023-12-30T05:25:36.096Z,25.97
2023-12-30T05:26:36.782Z,25.99
2023-12-30T05:27:35.925Z,25.96
2023-12-30T05:28:35.828Z,25.97
2023-12-30T05:29:36.756Z,25.96
2023-12-30T05:30:35.821Z,25.96
2023-12-30T05:31:35.846Z,25.96
2023-12-30T05:32:35.833Z,25.95
2023-12-30T05:33:37.306Z,25.95
2023-12-30T05:34:43.446Z,25.97
2023-12-30T05:35:36.296Z,25.93
2023-12-30T05:36:35.625Z,25.93
2023-12-30T05:37:35.669Z,25.96
2023-12-30T05:38:35.545Z,25.95
2023-12-30T05:39:35.520Z,25.95
2023-12-30T05:40:35.550Z,25.95
2023-12-30T05:41:35.459Z,25.95
2023-12-30T05:42:35.465Z,25.96
2023-12-30T05:43:36.304Z,25.96
2023-12-30T05:44:35.527Z,25.97
2023-12-30T05:45:35.347Z,25.96
2023-12-30T05:46:35.347Z,25.96
2023-12-30T05:47:35.299Z,25.96
2023-12-30T05:48:35.348Z,25.95
2023-12-30T05:49:35.343Z,25.97
2023-12-30T05:50:35.765Z,25.96
2023-12-30T05:51:35.194Z,25.97
2023-12-30T05:52:35.266Z,25.96
2023-12-30T05:53:35.851Z,25.96
2023-12-30T05:54:35.139Z,25.96
2023-12-30T05:55:35.144Z,25.96
2023-12-30T05:56:35.142Z,25.99
2023-12-30T05:57:35.386Z,25.96
2023-12-30T05:58:35.082Z,25.99
2023-12-30T05:59:35.275Z,25.96
2023-12-30T06:00:35.126Z,25.95
2023-12-30T06:01:35.071Z,25.97
2023-12-30T06:02:35.775Z,25.93
2023-12-30T06:03:34.983Z,25.95
2023-12-30T06:04:36.868Z,25.95
2023-12-30T06:05:34.903Z,25.93
2023-12-30T06:06:34.835Z,25.95
2023-12-30T06:07:36.879Z,25.96
2023-12-30T06:08:34.852Z,25.95
2023-12-30T06:09:34.769Z,25.96
2023-12-30T06:10:34.778Z,25.96
2023-12-30T06:11:34.733Z,25.95
2023-12-30T06:12:34.711Z,25.95
2023-12-30T06:13:34.765Z,25.95
2023-12-30T06:14:34.976Z,25.95
2023-12-30T06:15:34.625Z,25.95
2023-12-30T06:16:34.680Z,25.93
2023-12-30T06:17:34.612Z,25.95
2023-12-30T06:18:34.658Z,25.95
2023-12-30T06:19:35.405Z,25.95
2023-12-30T06:20:34.661Z,25.95
2023-12-30T06:21:35.418Z,25.95
2023-12-30T06:22:34.573Z,25.95
2023-12-30T06:23:34.483Z,25.95
2023-12-30T06:24:34.505Z,25.97
2023-12-30T06:25:34.671Z,25.95
2023-12-30T06:26:34.429Z,25.93
2023-12-30T06:27:34.365Z,25.95
2023-12-30T06:28:34.410Z,25.95
2023-12-30T06:29:35.414Z,25.96
2023-12-30T06:30:34.536Z,25.95
2023-12-30T06:31:34.437Z,25.93
2023-12-30T06:32:35.378Z,25.95
2023-12-30T06:33:34.579Z,25.96
2023-12-30T06:34:35.570Z,25.95
2023-12-30T06:35:34.510Z,25.96
2023-12-30T06:36:41.335Z,25.96
2023-12-30T06:37:34.577Z,25.97
2023-12-30T06:38:35.324Z,25.96
2023-12-30T06:39:34.480Z,25.96
2023-12-30T06:40:34.510Z,25.96
2023-12-30T06:41:34.468Z,25.99
2023-12-30T06:42:34.484Z,25.97
2023-12-30T06:43:34.498Z,25.97
2023-12-30T06:44:34.533Z,25.96
2023-12-30T06:45:34.322Z,25.96
2023-12-30T06:46:34.340Z,25.99
2023-12-30T06:47:34.325Z,25.97
2023-12-30T06:48:34.359Z,25.99
2023-12-30T06:49:34.340Z,26.00
2023-12-30T06:50:34.240Z,25.99
2023-12-30T06:51:34.289Z,26.01
2023-12-30T06:52:34.328Z,25.99
2023-12-30T06:53:34.264Z,25.99
2023-12-30T06:54:34.368Z,25.99
2023-12-30T06:55:38.945Z,25.99
2023-12-30T06:56:35.427Z,25.99
2023-12-30T06:57:34.375Z,26.01
2023-12-30T06:58:35.434Z,26.01
2023-12-30T06:59:34.885Z,25.99
2023-12-30T07:00:36.361Z,25.99
2023-12-30T07:01:35.450Z,25.99
2023-12-30T07:02:34.485Z,25.99
2023-12-30T07:03:34.489Z,25.97
2023-12-30T07:04:34.580Z,25.99
2023-12-30T07:05:35.437Z,25.99
2023-12-30T07:06:34.525Z,25.97
2023-12-30T07:07:34.495Z,25.99
2023-12-30T07:08:35.304Z,26.00
2023-12-30T07:09:34.524Z,26.03
2023-12-30T07:10:35.385Z,26.01
2023-12-30T07:11:34.406Z,26.00
2023-12-30T07:12:34.355Z,26.01
2023-12-30T07:13:34.438Z,26.00
2023-12-30T07:14:34.364Z,26.01
2023-12-30T07:15:34.806Z,26.01
2023-12-30T07:16:34.311Z,26.01
2023-12-30T07:17:34.388Z,26.01
2023-12-30T07:18:34.267Z,26.03
2023-12-30T07:19:34.270Z,26.04
2023-12-30T07:20:34.164Z,26.01
2023-12-30T07:21:34.161Z,26.04
2023-12-30T07:22:34.219Z,26.03
2023-12-30T07:23:34.095Z,26.04
2023-12-30T07:24:34.088Z,26.06
2023-12-30T07:26:36.068Z,26.03
2023-12-30T07:27:33.985Z,26.07
2023-12-30T07:28:35.002Z,26.04
2023-12-30T07:29:33.975Z,26.04
2023-12-30T07:30:33.918Z,26.04
2023-12-30T07:31:33.835Z,26.04
2023-12-30T07:32:34.885Z,26.04
2023-12-30T07:33:33.969Z,26.03
2023-12-30T07:34:33.812Z,26.04
2023-12-30T07:35:33.784Z,26.06
2023-12-30T07:36:34.763Z,26.03
2023-12-30T07:37:33.981Z,26.04
2023-12-30T07:38:34.405Z,26.04
2023-12-30T07:39:33.746Z,26.04
2023-12-30T07:40:33.755Z,26.06
2023-12-30T07:41:33.681Z,26.07
2023-12-30T07:42:33.653Z,26.07
2023-12-30T07:43:33.704Z,26.06
2023-12-30T07:44:33.838Z,26.06
2023-12-30T07:45:33.574Z,26.07
2023-12-30T07:46:34.548Z,26.06
2023-12-30T07:47:34.704Z,26.07
2023-12-30T07:48:33.505Z,26.08
2023-12-30T07:49:33.720Z,26.06
2023-12-30T07:50:33.425Z,26.06
2023-12-30T07:51:34.313Z,26.07
2023-12-30T07:52:33.512Z,26.08
2023-12-30T07:53:33.521Z,26.07
2023-12-30T07:54:33.529Z,26.06
2023-12-30T07:55:34.324Z,26.07
2023-12-30T07:56:33.414Z,26.07
2023-12-30T07:57:34.319Z,26.08
2023-12-30T07:58:33.606Z,26.07
2023-12-30T07:59:33.511Z,26.10
2023-12-30T08:00:33.482Z,26.08
2023-12-30T08:01:34.640Z,26.08
2023-12-30T08:02:34.334Z,26.08
2023-12-30T08:03:34.362Z,26.10
2023-12-30T08:04:33.601Z,26.12
2023-12-30T08:05:33.599Z,26.08
2023-12-30T08:06:33.492Z,26.13
2023-12-30T08:07:36.397Z,26.12
2023-12-30T08:08:33.481Z,26.12
2023-12-30T08:09:33.501Z,26.12
2023-12-30T08:10:33.456Z,26.12
2023-12-30T08:11:39.688Z,26.12
2023-12-30T08:12:34.370Z,26.12
2023-12-30T08:13:33.388Z,26.10
2023-12-30T08:14:33.391Z,26.12
2023-12-30T08:15:33.341Z,26.12
2023-12-30T08:16:33.442Z,26.14
2023-12-30T08:17:33.444Z,26.12
2023-12-30T08:18:34.034Z,26.12
2023-12-30T08:19:33.300Z,26.12
2023-12-30T08:20:33.878Z,26.13
2023-12-30T08:21:33.207Z,26.16
2023-12-30T08:22:33.926Z,26.14
2023-12-30T08:23:33.859Z,26.13
2023-12-30T08:24:33.143Z,26.14
2023-12-30T08:25:33.190Z,26.16
2023-12-30T08:26:33.861Z,26.13
2023-12-30T08:27:33.065Z,26.16
2023-12-30T08:28:33.006Z,26.16
2023-12-30T08:29:32.949Z,26.19
2023-12-30T08:30:33.879Z,26.16
2023-12-30T08:31:33.043Z,26.14
2023-12-30T08:32:32.900Z,26.17
2023-12-30T08:33:33.865Z,26.19
2023-12-30T08:34:33.676Z,26.19
2023-12-30T08:35:32.795Z,26.17
2023-12-30T08:36:32.768Z,26.17
2023-12-30T08:37:32.803Z,26.19
2023-12-30T08:38:32.705Z,26.20
2023-12-30T08:39:32.722Z,26.17
2023-12-30T08:40:35.003Z,26.21
2023-12-30T08:41:32.609Z,26.21
2023-12-30T08:42:32.560Z,26.20
2023-12-30T08:43:32.713Z,26.21
2023-12-30T08:44:32.589Z,26.21
2023-12-30T08:45:33.365Z,26.21
2023-12-30T08:46:32.719Z,26.20
2023-12-30T08:47:32.477Z,26.20
2023-12-30T08:48:32.438Z,26.21
2023-12-30T08:49:32.527Z,26.23
2023-12-30T08:50:32.416Z,26.24
2023-12-30T08:51:32.357Z,26.26
2023-12-30T08:52:32.418Z,26.26
2023-12-30T08:53:32.275Z,26.27
2023-12-30T08:54:32.268Z,26.30
2023-12-30T08:55:32.281Z,26.31
2023-12-30T08:56:32.921Z,26.33
2023-12-30T08:57:32.145Z,26.34
2023-12-30T08:58:34.000Z,26.35
2023-12-30T08:59:32.176Z,26.37
2023-12-30T09:00:32.079Z,26.38
2023-12-30T09:01:33.021Z,26.37
2023-12-30T09:02:32.000Z,26.38
2023-12-30T09:03:32.903Z,26.40
2023-12-30T09:04:32.552Z,26.40
2023-12-30T09:05:32.860Z,26.40
2023-12-30T09:06:32.878Z,26.40
2023-12-30T09:07:31.908Z,26.38
2023-12-30T09:08:31.814Z,26.41
2023-12-30T09:09:31.891Z,26.38
2023-12-30T09:10:31.774Z,26.40
2023-12-30T09:11:31.711Z,26.40
2023-12-30T09:12:31.676Z,26.35
2023-12-30T09:13:31.817Z,26.37
2023-12-30T09:14:31.632Z,26.37
2023-12-30T09:15:31.613Z,26.35
2023-12-30T09:16:31.564Z,26.35
2023-12-30T09:17:31.604Z,26.35
2023-12-30T09:18:31.513Z,26.34
2023-12-30T09:19:32.972Z,26.35
2023-12-30T09:20:32.369Z,26.35
2023-12-30T09:21:31.384Z,26.37
2023-12-30T09:22:31.418Z,26.38
2023-12-30T09:23:31.357Z,26.38
2023-12-30T09:24:39.760Z,26.33
2023-12-30T09:25:40.438Z,26.35
2023-12-30T09:26:38.686Z,26.35
2023-12-30T09:27:38.673Z,26.37
2023-12-30T09:28:38.798Z,26.37
2023-12-30T09:29:38.755Z,26.37
2023-12-30T09:30:38.739Z,26.37
2023-12-30T09:31:38.699Z,26.38
2023-12-30T09:32:38.828Z,26.37
2023-12-30T09:34:43.865Z,26.38
2023-12-30T09:35:39.829Z,26.37
2023-12-30T09:36:38.713Z,26.38
2023-12-30T09:37:38.764Z,26.37
2023-12-30T09:38:38.750Z,26.37
2023-12-30T09:39:38.826Z,26.35
2023-12-30T09:40:38.916Z,26.35
2023-12-30T09:41:39.291Z,26.38
2023-12-30T09:42:38.874Z,26.40
2023-12-30T09:43:38.823Z,26.37
2023-12-30T09:44:39.623Z,26.37
2023-12-30T09:45:38.843Z,26.37
2023-12-30T09:46:38.793Z,26.35
2023-12-30T09:47:40.987Z,26.35
2023-12-30T09:48:38.869Z,26.35
2023-12-30T09:49:39.002Z,26.35
2023-12-30T09:50:38.937Z,26.40
2023-12-30T09:51:38.891Z,26.37
2023-12-30T09:52:39.974Z,26.35
2023-12-30T09:53:39.035Z,26.37
2023-12-30T09:54:46.007Z,26.37
2023-12-30T09:55:40.148Z,26.37
2023-12-30T09:56:39.102Z,26.35
2023-12-30T09:57:39.107Z,26.38
2023-12-30T09:58:39.189Z,26.38
2023-12-30T09:59:39.269Z,26.40
2023-12-30T10:00:39.259Z,26.43
2023-12-30T10:01:40.948Z,26.43
2023-12-30T10:02:39.195Z,26.45
2023-12-30T10:04:39.260Z,26.43
2023-12-30T10:05:39.869Z,26.40
2023-12-30T10:06:39.782Z,26.45
2023-12-30T10:07:39.208Z,26.44
2023-12-30T10:08:40.904Z,26.44
2023-12-30T10:09:39.255Z,26.45
2023-12-30T10:10:39.278Z,26.47
2023-12-30T10:11:39.194Z,26.48
2023-12-30T10:12:39.351Z,26.45
2023-12-30T10:13:39.803Z,26.47
2023-12-30T10:14:39.361Z,26.47
2023-12-30T10:15:40.283Z,26.48
2023-12-30T10:16:39.292Z,26.51
2023-12-30T10:17:40.337Z,26.51
2023-12-30T10:18:39.640Z,26.50
2023-12-30T10:19:39.416Z,26.50
2023-12-30T10:20:40.302Z,26.50
2023-12-30T10:21:39.341Z,26.51
2023-12-30T10:22:39.409Z,26.48
2023-12-30T10:23:39.415Z,26.52
2023-12-30T10:24:39.444Z,26.51
2023-12-30T10:25:40.317Z,26.52
2023-12-30T10:26:40.359Z,26.52
2023-12-30T10:27:40.413Z,26.51
2023-12-30T10:28:40.351Z,26.54
2023-12-30T10:29:47.087Z,26.54
2023-12-30T10:30:40.538Z,26.54
2023-12-30T10:31:41.342Z,26.54
2023-12-30T10:32:39.566Z,26.56
2023-12-30T10:33:39.638Z,26.55
2023-12-30T10:34:39.678Z,26.55
2023-12-30T10:35:39.592Z,26.54
2023-12-30T10:36:39.589Z,26.55
2023-12-30T10:37:39.760Z,26.58
2023-12-30T10:38:39.625Z,26.56
2023-12-30T10:39:39.709Z,26.56
2023-12-30T10:40:39.843Z,26.55
2023-12-30T10:41:40.295Z,26.54
2023-12-30T10:42:39.685Z,26.55
2023-12-30T10:43:39.783Z,26.56
2023-12-30T10:44:39.717Z,26.58
2023-12-30T10:45:39.785Z,26.55
2023-12-30T10:46:39.782Z,26.61
2023-12-30T10:47:39.853Z,26.56
2023-12-30T10:48:39.755Z,26.61
2023-12-30T10:49:39.877Z,26.59
2023-12-30T10:50:40.201Z,26.62
2023-12-30T10:51:39.753Z,26.59
2023-12-30T10:53:03.125Z,26.59
2023-12-30T10:53:39.955Z,26.62
2023-12-30T10:54:40.048Z,26.61
2023-12-30T10:55:40.191Z,26.61
2023-12-30T10:56:40.786Z,26.61
2023-12-30T10:57:40.799Z,26.62
2023-12-30T10:58:40.132Z,26.64
2023-12-30T10:59:40.055Z,26.64
2023-12-30T11:00:40.131Z,26.67
2023-12-30T11:01:40.154Z,26.64
2023-12-30T11:02:40.061Z,26.67
2023-12-30T11:03:40.293Z,26.65
2023-12-30T11:04:40.204Z,26.67
2023-12-30T11:05:40.892Z,26.67
2023-12-30T11:06:40.112Z,26.65
2023-12-30T11:07:40.979Z,26.64
2023-12-30T11:08:40.216Z,26.62
2023-12-30T11:09:40.383Z,26.64
2023-12-30T11:10:40.722Z,26.62
2023-12-30T11:11:40.181Z,26.62
2023-12-30T11:12:40.242Z,26.62
2023-12-30T11:13:40.349Z,26.62
2023-12-30T11:14:41.927Z,26.62
2023-12-30T11:15:41.395Z,26.64
2023-12-30T11:16:40.468Z,26.62
2023-12-30T11:17:40.523Z,26.64
2023-12-30T11:18:40.568Z,26.65
2023-12-30T11:19:40.702Z,26.65
2023-12-30T11:20:42.481Z,26.65
2023-12-30T11:21:40.534Z,26.65
2023-12-30T11:22:41.645Z,26.65
2023-12-30T11:23:40.641Z,26.65
2023-12-30T11:24:40.534Z,26.67
2023-12-30T11:25:40.557Z,26.67
2023-12-30T11:26:41.260Z,26.67
2023-12-30T11:27:40.759Z,26.70
2023-12-30T11:28:40.659Z,26.70
2023-12-30T11:29:40.912Z,26.70
2023-12-30T11:30:41.340Z,26.71
2023-12-30T11:31:40.661Z,26.71
2023-12-30T11:32:40.671Z,26.71
2023-12-30T11:33:40.706Z,26.71
2023-12-30T11:34:40.795Z,26.70
2023-12-30T11:35:40.683Z,26.72
2023-12-30T11:36:40.765Z,26.71
2023-12-30T11:37:40.763Z,26.74
2023-12-30T11:38:40.713Z,26.72
2023-12-30T11:39:40.874Z,26.72
2023-12-30T11:40:41.349Z,26.71
2023-12-30T11:41:40.780Z,26.74
2023-12-30T11:42:45.668Z,26.72
2023-12-30T11:43:41.827Z,26.74
2023-12-30T11:44:40.765Z,26.74
2023-12-30T11:45:41.330Z,26.75
2023-12-30T11:46:40.916Z,26.71
2023-12-30T11:47:40.941Z,26.72
2023-12-30T11:48:40.882Z,26.74
2023-12-30T11:49:40.900Z,26.74
2023-12-30T11:50:40.871Z,26.74
2023-12-30T11:51:40.885Z,26.72
2023-12-30T11:52:40.966Z,26.75
2023-12-30T11:53:40.877Z,26.75
2023-12-30T11:54:42.847Z,26.75
2023-12-30T11:55:40.981Z,26.77
2023-12-30T11:56:41.059Z,26.77
2023-12-30T11:57:40.910Z,26.75
2023-12-30T11:58:40.941Z,26.74
2023-12-30T11:59:41.388Z,26.74
2023-12-30T12:00:40.927Z,26.72
2023-12-30T12:01:42.047Z,26.77
2023-12-30T12:02:42.850Z,26.75
2023-12-30T12:03:41.002Z,26.75
2023-12-30T12:04:41.145Z,26.78
2023-12-30T12:05:41.925Z,26.78
2023-12-30T12:06:41.825Z,26.75
2023-12-30T12:07:41.878Z,26.77
2023-12-30T12:08:44.228Z,26.77
2023-12-30T12:09:41.062Z,26.78
2023-12-30T12:10:42.017Z,26.81
2023-12-30T12:11:41.000Z,26.77
2023-12-30T12:12:43.828Z,26.78
2023-12-30T12:13:41.183Z,26.78
2023-12-30T12:14:42.281Z,26.78
2023-12-30T12:15:41.175Z,26.78
2023-12-30T12:16:41.165Z,26.75
2023-12-30T12:17:41.554Z,26.75
2023-12-30T12:18:41.156Z,26.75
2023-12-30T12:19:41.237Z,26.78
2023-12-30T12:20:41.831Z,26.78
2023-12-30T12:21:41.829Z,26.78
2023-12-30T12:22:41.197Z,26.78
2023-12-30T12:23:42.239Z,26.75
2023-12-30T12:24:41.147Z,26.78
2023-12-30T12:25:41.851Z,26.77
2023-12-30T12:26:41.287Z,26.77
2023-12-30T12:27:41.324Z,26.75
2023-12-30T12:28:41.954Z,26.74
2023-12-30T12:29:42.393Z,26.77
2023-12-30T12:30:41.927Z,26.77
2023-12-30T12:31:41.512Z,26.78
2023-12-30T12:32:41.493Z,26.77
2023-12-30T12:33:41.547Z,26.77
2023-12-30T12:34:42.948Z,26.78
2023-12-30T12:35:41.661Z,26.78
2023-12-30T12:36:41.664Z,26.79
2023-12-30T12:37:42.479Z,26.78
2023-12-30T12:38:41.820Z,26.78
2023-12-30T12:39:42.392Z,26.78
2023-12-30T12:40:41.913Z,26.79
2023-12-30T12:41:41.971Z,26.78
2023-12-30T12:42:42.066Z,26.81
2023-12-30T12:43:42.049Z,26.77
2023-12-30T12:44:48.784Z,26.77
2023-12-30T12:45:42.073Z,26.79
2023-12-30T12:46:42.194Z,26.79
2023-12-30T12:47:42.915Z,26.78
2023-12-30T12:48:42.465Z,26.78
2023-12-30T12:49:43.165Z,26.79
2023-12-30T12:50:42.435Z,26.79
2023-12-30T12:51:42.391Z,26.78
2023-12-30T12:52:42.452Z,26.81
2023-12-30T12:53:42.406Z,26.79
2023-12-30T12:54:43.471Z,26.79
2023-12-30T12:55:43.384Z,26.81
2023-12-30T12:56:43.346Z,26.79
2023-12-30T12:57:42.502Z,26.78
2023-12-30T12:58:42.654Z,26.78
2023-12-30T12:59:42.489Z,26.79
2023-12-30T13:00:42.562Z,26.79
2023-12-30T13:01:42.646Z,26.77
2023-12-30T13:02:42.863Z,26.78
2023-12-30T13:03:42.511Z,26.79
2023-12-30T13:04:42.637Z,26.81
2023-12-30T13:05:43.392Z,26.78
2023-12-30T13:06:42.542Z,26.79
2023-12-30T13:07:42.725Z,26.78
2023-12-30T13:08:42.768Z,26.77
2023-12-30T13:09:42.628Z,26.78
2023-12-30T13:10:43.034Z,26.78
2023-12-30T13:11:42.629Z,26.77
2023-12-30T13:12:42.664Z,26.79
2023-12-30T13:13:43.043Z,26.79
2023-12-30T13:14:43.818Z,26.81
2023-12-30T13:15:42.856Z,26.79
2023-12-30T13:16:43.378Z,26.79
2023-12-30T13:17:43.994Z,26.81
2023-12-30T13:18:43.123Z,26.81
2023-12-30T13:19:44.928Z,26.83
2023-12-30T13:20:45.649Z,26.79
2023-12-30T13:21:43.118Z,26.82
2023-12-30T13:22:43.130Z,26.79
2023-12-30T13:23:43.034Z,26.81
2023-12-30T13:24:43.112Z,26.79
2023-12-30T13:25:43.162Z,26.81
2023-12-30T13:26:43.250Z,26.79
2023-12-30T13:27:43.972Z,26.78
2023-12-30T13:28:43.245Z,26.81
2023-12-30T13:29:43.930Z,26.79
2023-12-30T13:30:43.180Z,26.78
2023-12-30T13:31:43.210Z,26.78
2023-12-30T13:32:43.302Z,26.79
2023-12-30T13:33:44.923Z,26.78
2023-12-30T13:34:43.282Z,26.75
2023-12-30T13:35:44.912Z,26.78
2023-12-30T13:36:43.845Z,26.77
2023-12-30T13:37:43.303Z,26.77
2023-12-30T13:38:43.228Z,26.74
2023-12-30T13:39:43.852Z,26.75